createdAt,value
2019-04-05T00:00:48.289Z,99822.48
2019-04-05T00:03:21.055Z,99818.96
2019-04-05T00:05:53.889Z,99818.20
2019-04-05T00:08:26.715Z,99818.41
2019-04-05T00:10:59.559Z,99818.92
2019-04-05T00:13:32.359Z,99821.98
2019-04-05T00:16:05.344Z,99822.97
2019-04-05T00:18:38.631Z,99821.77
2019-04-05T00:21:11.401Z,99820.98
2019-04-05T00:23:44.285Z,99820.66
2019-04-05T00:26:17.138Z,99826.23
2019-04-05T00:28:51.733Z,99819.61
2019-04-05T00:31:26.625Z,99818.23
2019-04-05T00:34:00.497Z,99823.36
2019-04-05T00:36:33.444Z,99817.57
2019-04-05T00:39:09.604Z,99817.06
2019-04-05T00:41:42.441Z,99823.11
2019-04-05T00:44:15.382Z,99823.22
2019-04-05T00:46:48.183Z,99818.30
2019-04-05T00:49:20.943Z,99822.72
2019-04-05T00:51:53.754Z,99823.51
2019-04-05T00:54:26.529Z,99815.52
2019-04-05T00:56:59.887Z,99814.10
2019-04-05T00:59:32.948Z,99821.93
2019-04-05T01:02:06.365Z,99821.98
2019-04-05T01:04:40.284Z,99818.05
2019-04-05T01:07:13.095Z,99820.09
2019-04-05T01:09:47.352Z,99826.72
2019-04-05T01:12:21.843Z,99823.17
2019-04-05T01:14:56.270Z,99823.11
2019-04-05T01:17:29.086Z,99819.56
2019-04-05T01:20:04.643Z,99830.23
2019-04-05T01:22:37.610Z,99825.42
2019-04-05T01:25:10.837Z,99827.34
2019-04-05T01:27:44.435Z,99834.43
2019-04-05T01:30:18.590Z,99823.84
2019-04-05T01:32:51.454Z,99833.61
2019-04-05T01:35:24.443Z,99831.98
2019-04-05T01:37:57.985Z,99834.26
2019-04-05T01:40:32.963Z,99834.84
2019-04-05T01:43:06.033Z,99832.28
2019-04-05T01:45:38.999Z,99836.25
2019-04-05T01:48:12.103Z,99835.80
2019-04-05T01:50:44.896Z,99838.63
2019-04-05T01:53:17.872Z,99836.52
2019-04-05T01:55:50.634Z,99841.48
2019-04-05T01:58:23.418Z,99839.74
2019-04-05T02:00:56.225Z,99838.36
2019-04-05T02:03:30.062Z,99836.66
2019-04-05T02:06:02.956Z,99837.09
2019-04-05T02:08:35.766Z,99844.91
2019-04-05T02:11:08.972Z,99841.44
2019-04-05T02:13:42.042Z,99844.08
2019-04-05T02:16:14.829Z,99848.13
2019-04-05T02:18:47.826Z,99851.33
2019-04-05T02:21:20.594Z,99845.59
2019-04-05T02:23:53.479Z,99849.14
2019-04-05T02:26:31.450Z,99844.28
2019-04-05T02:29:04.248Z,99846.51
2019-04-05T02:31:38.138Z,99855.43
2019-04-05T02:34:10.930Z,99850.04
2019-04-05T02:36:43.737Z,99854.76
2019-04-05T02:39:16.604Z,99854.00
2019-04-05T02:41:50.056Z,99855.44
2019-04-05T02:44:24.525Z,99862.47
2019-04-05T02:46:58.202Z,99859.47
2019-04-05T02:49:33.044Z,99859.92
2019-04-05T02:52:07.333Z,99862.13
2019-04-05T02:54:40.804Z,99855.09
2019-04-05T02:57:14.912Z,99859.47
2019-04-05T02:59:48.793Z,99867.88
2019-04-05T03:02:22.589Z,99875.91
2019-04-05T03:04:55.693Z,99872.90
2019-04-05T03:07:29.631Z,99874.26
2019-04-05T03:10:02.835Z,99874.43
2019-04-05T03:12:37.049Z,99871.02
2019-04-05T03:15:10.495Z,99871.95
2019-04-05T03:17:43.743Z,99873.86
2019-04-05T03:20:16.525Z,99876.22
2019-04-05T03:22:49.466Z,99873.30
2019-04-05T03:25:22.255Z,99876.55
2019-04-05T03:27:55.230Z,99888.46
2019-04-05T03:30:28.497Z,99887.16
2019-04-05T03:33:01.719Z,99890.28
2019-04-05T03:35:34.784Z,99893.38
2019-04-05T03:38:08.919Z,99891.23
2019-04-05T03:40:42.324Z,99891.41
2019-04-05T03:43:15.208Z,99893.71
2019-04-05T03:45:48.287Z,99893.80
2019-04-05T03:48:23.771Z,99901.39
2019-04-05T03:50:56.968Z,99901.92
2019-04-05T03:53:29.876Z,99902.81
2019-04-05T03:56:03.276Z,99901.06
2019-04-05T03:58:36.161Z,99901.06
2019-04-05T04:01:09.450Z,99900.25
2019-04-05T04:03:42.665Z,99901.59
2019-04-05T04:06:17.256Z,99902.59
2019-04-05T04:08:50.106Z,99898.66
2019-04-05T04:11:23.384Z,99905.69
2019-04-05T04:13:56.390Z,99905.75
2019-04-05T04:16:30.209Z,99902.73
2019-04-05T04:19:03.392Z,99908.95
2019-04-05T04:22:18.652Z,99916.47
2019-04-05T04:24:51.799Z,99908.14
2019-04-05T04:27:25.240Z,99911.64
2019-04-05T04:30:00.491Z,99916.05
2019-04-05T04:32:33.671Z,99917.80
2019-04-05T04:35:07.411Z,99919.05
2019-04-05T04:37:40.200Z,99923.83
2019-04-05T04:40:15.224Z,99922.48
2019-04-05T04:42:48.484Z,99925.08
2019-04-05T04:45:21.862Z,99919.36
2019-04-05T04:47:55.550Z,99920.22
2019-04-05T04:50:29.380Z,99925.87
2019-04-05T04:53:02.704Z,99932.41
2019-04-05T04:55:36.334Z,99937.54
2019-04-05T04:58:09.296Z,99932.31
2019-04-05T05:00:42.177Z,99931.81
2019-04-05T05:03:15.453Z,99934.82
2019-04-05T05:05:48.445Z,99944.48
2019-04-05T05:08:21.267Z,99944.05
2019-04-05T05:10:54.419Z,99950.12
2019-04-05T05:13:28.959Z,99943.97
2019-04-05T05:16:04.491Z,99946.09
2019-04-05T05:18:45.004Z,99947.47
2019-04-05T05:21:18.114Z,99950.48
2019-04-05T05:23:50.888Z,99949.90
2019-04-05T05:26:24.197Z,99950.33
2019-04-05T05:28:57.102Z,99955.51
2019-04-05T05:31:29.989Z,99960.26
2019-04-05T05:34:03.063Z,99953.22
2019-04-05T05:36:36.469Z,99961.91
2019-04-05T05:39:10.251Z,99954.34
2019-04-05T05:41:43.068Z,99961.27
2019-04-05T05:44:15.939Z,99967.69
2019-04-05T05:46:48.735Z,99966.23
2019-04-05T05:49:21.513Z,99967.41
2019-04-05T05:51:54.952Z,99972.53
2019-04-05T05:54:27.739Z,99970.64
2019-04-05T05:57:00.657Z,99969.55
2019-04-05T05:59:33.637Z,99966.39
2019-04-05T06:02:07.399Z,99968.03
2019-04-05T06:04:40.526Z,99970.43
2019-04-05T06:07:13.393Z,99972.78
2019-04-05T06:09:47.760Z,99972.47
2019-04-05T06:12:20.658Z,99972.56
2019-04-05T06:14:55.403Z,99971.88
2019-04-05T06:17:28.160Z,99973.38
2019-04-05T06:20:00.927Z,99968.88
2019-04-05T06:22:33.924Z,99971.11
2019-04-05T06:25:07.282Z,99978.78
2019-04-05T06:27:40.060Z,99977.22
2019-04-05T06:30:13.129Z,99975.79
2019-04-05T06:32:46.056Z,99977.83
2019-04-05T06:35:19.168Z,99980.92
2019-04-05T06:37:52.010Z,99977.21
2019-04-05T06:40:25.073Z,99981.02
2019-04-05T06:42:57.828Z,99986.37
2019-04-05T06:45:30.719Z,99988.86
2019-04-05T06:48:03.573Z,99984.88
2019-04-05T06:50:36.336Z,99990.96
2019-04-05T06:53:09.144Z,99988.59
2019-04-05T06:55:42.013Z,99985.91
2019-04-05T06:58:19.882Z,99995.06
2019-04-05T07:00:56.839Z,99993.31
2019-04-05T07:03:23.882Z,99997.06
2019-04-05T07:05:56.669Z,100002.23
2019-04-05T07:08:29.512Z,100006.52
2019-04-05T07:11:02.283Z,100003.70
2019-04-05T07:13:35.204Z,99994.53
2019-04-05T07:16:10.989Z,99997.25
2019-04-05T07:18:43.091Z,99995.78
2019-04-05T07:21:17.457Z,99995.31
2019-04-05T07:23:50.402Z,100002.18
2019-04-05T07:26:23.274Z,99995.59
2019-04-05T07:28:56.395Z,100001.89
2019-04-05T07:31:29.353Z,100000.82
2019-04-05T07:34:02.266Z,99997.52
2019-04-05T07:36:35.251Z,100005.80
2019-04-05T07:39:09.455Z,100002.27
2019-04-05T07:41:42.434Z,100008.62
2019-04-05T07:44:15.203Z,100011.20
2019-04-05T07:46:48.139Z,100015.34
2019-04-05T07:49:21.094Z,100012.77
2019-04-05T07:51:54.048Z,100019.63
2019-04-05T07:54:26.849Z,100016.30
2019-04-05T07:57:01.567Z,100018.59
2019-04-05T07:59:38.012Z,100020.20
2019-04-05T08:02:12.276Z,100024.17
2019-04-05T08:04:45.171Z,100021.51
2019-04-05T08:07:19.424Z,100027.09
2019-04-05T08:09:54.542Z,100027.27
2019-04-05T08:12:28.145Z,100027.84
2019-04-05T08:15:01.182Z,100025.27
2019-04-05T08:17:34.138Z,100032.36
2019-04-05T08:20:07.601Z,100036.53
2019-04-05T08:22:40.543Z,100031.53
2019-04-05T08:25:13.951Z,100037.27
2019-04-05T08:27:46.918Z,100037.20
2019-04-05T08:30:19.871Z,100030.25
2019-04-05T08:32:52.624Z,100043.14
2019-04-05T08:35:25.421Z,100042.23
2019-04-05T08:37:59.669Z,100043.55
2019-04-05T08:40:32.757Z,100045.09
2019-04-05T08:43:05.636Z,100046.48
2019-04-05T08:45:38.431Z,100049.73
2019-04-05T08:48:11.285Z,100048.34
2019-04-05T08:50:44.293Z,100043.34
2019-04-05T08:53:17.090Z,100035.16
2019-04-05T08:55:49.886Z,100042.00
2019-04-05T08:58:33.322Z,100038.20
2019-04-05T09:00:58.420Z,100040.37
2019-04-05T09:03:31.319Z,100033.74
2019-04-05T09:06:04.113Z,100027.52
2019-04-05T09:08:37.015Z,100029.02
2019-04-05T09:11:09.776Z,100024.55
2019-04-05T09:13:42.810Z,100034.03
2019-04-05T09:16:16.773Z,100039.03
2019-04-05T09:18:49.739Z,100035.10
2019-04-05T09:21:22.637Z,100029.66
2019-04-05T09:23:55.535Z,100040.27
2019-04-05T09:26:28.328Z,100028.22
2019-04-05T09:29:01.128Z,100030.82
2019-04-05T09:31:34.028Z,100029.39
2019-04-05T09:34:07.013Z,100037.68
2019-04-05T09:36:40.014Z,100031.75
2019-04-05T09:39:15.708Z,100038.93
2019-04-05T09:41:47.472Z,100048.10
2019-04-05T09:44:20.463Z,100048.31
2019-04-05T09:46:53.274Z,100050.50
2019-04-05T09:49:36.076Z,100046.65
2019-04-05T09:52:00.895Z,100053.91
2019-04-05T09:54:34.004Z,100046.28
2019-04-05T09:57:06.887Z,100044.40
2019-04-05T09:59:40.253Z,100043.41
2019-04-05T10:02:13.150Z,100044.07
2019-04-05T10:04:46.010Z,100043.64
2019-04-05T10:07:18.986Z,100043.84
2019-04-05T10:09:51.767Z,100046.86
2019-04-05T10:12:24.846Z,100044.45
2019-04-05T10:14:57.622Z,100047.71
2019-04-05T10:17:30.521Z,100044.18
2019-04-05T10:20:03.394Z,100044.69
2019-04-05T10:22:36.356Z,100042.63
2019-04-05T10:25:09.645Z,100043.38
2019-04-05T10:27:42.449Z,100036.94
2019-04-05T10:30:15.641Z,100037.73
2019-04-05T10:32:48.460Z,100037.06
2019-04-05T10:35:21.405Z,100033.95
2019-04-05T10:37:54.250Z,100025.00
2019-04-05T10:40:27.032Z,100032.50
2019-04-05T10:42:59.871Z,100037.48
2019-04-05T10:45:32.806Z,100036.53
2019-04-05T10:48:05.690Z,100037.97
2019-04-05T10:50:38.492Z,100034.39
2019-04-05T10:53:11.397Z,100034.64
2019-04-05T10:55:44.223Z,100032.30
2019-04-05T10:58:17.373Z,100026.81
2019-04-05T11:00:50.232Z,100033.30
2019-04-05T11:03:24.226Z,100027.52
2019-04-05T11:05:57.217Z,100035.72
2019-04-05T11:08:30.055Z,100034.70
2019-04-05T11:11:02.838Z,100036.78
2019-04-05T11:13:35.944Z,100027.52
2019-04-05T11:16:08.765Z,100028.30
2019-04-05T11:18:44.925Z,100031.83
2019-04-05T11:21:18.337Z,100024.41
2019-04-05T11:23:53.608Z,100028.72
2019-04-05T11:26:26.263Z,100028.84
2019-04-05T11:28:59.125Z,100028.66
2019-04-05T11:31:32.040Z,100024.59
2019-04-05T11:34:07.295Z,100028.56
2019-04-05T11:36:41.172Z,100024.06
2019-04-05T11:39:15.865Z,100015.53
2019-04-05T11:41:52.001Z,100033.00
2019-04-05T11:44:26.390Z,100025.09
2019-04-05T11:46:59.206Z,100026.18
2019-04-05T11:49:34.836Z,100022.71
2019-04-05T11:52:07.642Z,100019.02
2019-04-05T11:54:40.695Z,100034.44
2019-04-05T11:57:14.080Z,100028.36
2019-04-05T11:59:48.589Z,100028.45
2019-04-05T12:02:38.170Z,100024.04
2019-04-05T12:05:12.995Z,100017.15
2019-04-05T12:07:45.837Z,100016.27
2019-04-05T12:10:19.554Z,100014.16
2019-04-05T12:12:52.471Z,100014.41
2019-04-05T12:15:25.387Z,100011.61
2019-04-05T12:17:58.680Z,100009.16
2019-04-05T12:20:33.246Z,100016.66
2019-04-05T12:23:06.250Z,100009.64
2019-04-05T12:25:39.028Z,100013.50
2019-04-05T12:28:12.247Z,100023.87
2019-04-05T12:30:46.662Z,100013.84
2019-04-05T12:33:20.451Z,100003.36
2019-04-05T12:35:56.465Z,100009.23
2019-04-05T12:38:34.570Z,100004.14
2019-04-05T12:41:10.672Z,99999.63
2019-04-05T12:43:44.610Z,100004.92
2019-04-05T12:46:16.789Z,100001.36
2019-04-05T12:48:49.698Z,100008.77
2019-04-05T12:51:22.571Z,100002.02
2019-04-05T12:53:56.745Z,99999.06
2019-04-05T12:56:29.862Z,99993.37
2019-04-05T12:59:02.643Z,99998.87
2019-04-05T13:01:35.460Z,100007.59
2019-04-05T13:04:08.318Z,99996.10
2019-04-05T13:06:42.396Z,99990.22
2019-04-05T13:09:15.321Z,99985.81
2019-04-05T13:11:48.417Z,99987.23
2019-04-05T13:14:21.221Z,99988.50
2019-04-05T13:16:55.422Z,99988.53
2019-04-05T13:19:30.315Z,99986.95
2019-04-05T13:22:04.980Z,99978.87
2019-04-05T13:24:40.288Z,99979.95
2019-04-05T13:27:12.513Z,99985.23
2019-04-05T13:29:47.344Z,99977.81
2019-04-05T13:32:22.357Z,99988.28
2019-04-05T13:34:55.797Z,99986.48
2019-04-05T13:37:30.880Z,99977.96
2019-04-05T13:40:06.252Z,99993.30
2019-04-05T13:42:39.439Z,99990.62
2019-04-05T13:45:12.765Z,99979.61
2019-04-05T13:47:45.658Z,99993.00
2019-04-05T13:50:19.511Z,99991.78
2019-04-05T13:52:52.486Z,99996.08
2019-04-05T13:55:25.253Z,99990.79
2019-04-05T13:58:01.762Z,99987.16
2019-04-05T14:00:35.814Z,99981.27
2019-04-05T14:03:08.657Z,99984.20
2019-04-05T14:05:41.572Z,99978.29
2019-04-05T14:08:15.839Z,99986.55
2019-04-05T14:10:49.147Z,99987.76
2019-04-05T14:13:22.030Z,99989.99
2019-04-05T14:15:54.839Z,99982.58
2019-04-05T14:18:29.071Z,99993.77
2019-04-05T14:21:01.863Z,99981.31
2019-04-05T14:23:36.459Z,99986.28
2019-04-05T14:26:12.450Z,99986.09
2019-04-05T14:28:45.320Z,99984.87
2019-04-05T14:31:23.194Z,99978.31
2019-04-05T14:33:59.605Z,99981.16
2019-04-05T14:36:32.749Z,99984.19
2019-04-05T14:39:09.252Z,99983.32
2019-04-05T14:41:42.139Z,99987.52
2019-04-05T14:44:16.079Z,99982.67
2019-04-05T14:46:48.900Z,99981.25
2019-04-05T14:49:21.755Z,99981.11
2019-04-05T14:51:56.576Z,99987.39
2019-04-05T14:54:30.178Z,99980.89
2019-04-05T14:57:05.858Z,99984.13
2019-04-05T14:59:39.018Z,99978.76
2019-04-05T15:02:11.935Z,99985.94
2019-04-05T15:04:44.910Z,99986.42
2019-04-05T15:07:20.956Z,99988.30
2019-04-05T15:09:55.634Z,99979.16
2019-04-05T15:12:29.159Z,99979.23
2019-04-05T15:15:02.370Z,99986.53
2019-04-05T15:17:47.371Z,99986.37
2019-04-05T15:20:10.175Z,99987.25
2019-04-05T15:22:43.111Z,99986.26
2019-04-05T15:25:17.502Z,99979.86
2019-04-05T15:27:53.832Z,99985.28
2019-04-05T15:30:26.622Z,99980.34
2019-04-05T15:33:03.572Z,99979.38
2019-04-05T15:35:36.476Z,99984.48
2019-04-05T15:38:09.285Z,99985.87
2019-04-05T15:40:42.155Z,99988.91
2019-04-05T15:43:15.037Z,99991.96
2019-04-05T15:45:47.904Z,99989.04
2019-04-05T15:48:22.811Z,99989.41
2019-04-05T15:50:57.806Z,99995.84
2019-04-05T15:53:32.107Z,100007.30
2019-04-05T15:56:05.314Z,100033.33
2019-04-05T15:58:38.169Z,100037.34
2019-04-05T16:01:11.714Z,100034.47
2019-04-05T16:03:44.758Z,100039.41
2019-04-05T16:06:17.716Z,100028.30
2019-04-05T16:08:52.118Z,100052.63
2019-04-05T16:11:25.048Z,100057.30
2019-04-05T16:13:57.923Z,100048.33
2019-04-05T16:16:32.190Z,100041.58
2019-04-05T16:19:05.139Z,100020.91
2019-04-05T16:21:38.065Z,100024.72
2019-04-05T16:24:10.904Z,100027.34
2019-04-05T16:26:43.812Z,100025.95
2019-04-05T16:29:16.718Z,100027.92
2019-04-05T16:31:49.747Z,100033.03
2019-04-05T16:34:22.740Z,100037.26
2019-04-05T16:36:55.644Z,100045.20
2019-04-05T16:39:28.544Z,100040.37
2019-04-05T16:42:01.502Z,100046.91
2019-04-05T16:44:34.722Z,100042.86
2019-04-05T16:47:07.658Z,100052.38
2019-04-05T16:49:40.904Z,100048.84
2019-04-05T16:52:13.955Z,100050.67
2019-04-05T16:54:46.847Z,100053.30
2019-04-05T16:57:20.046Z,100055.03
2019-04-05T16:59:52.994Z,100057.75
2019-04-05T17:02:25.929Z,100062.11
2019-04-05T17:04:59.948Z,100055.91
2019-04-05T17:07:33.076Z,100058.16
2019-04-05T17:10:06.671Z,100059.12
2019-04-05T17:12:39.807Z,100056.64
2019-04-05T17:15:12.966Z,100063.06
2019-04-05T17:17:45.948Z,100057.50
2019-04-05T17:20:19.116Z,100051.94
2019-04-05T17:22:58.012Z,100051.06
2019-04-05T17:25:26.829Z,100052.45
2019-04-05T17:28:00.432Z,100063.56
2019-04-05T17:30:36.119Z,100072.55
2019-04-05T17:33:08.375Z,100070.44
2019-04-05T17:35:41.388Z,100074.10
2019-04-05T17:38:14.514Z,100082.59
2019-04-05T17:40:48.968Z,100082.39
2019-04-05T17:43:21.913Z,100080.06
2019-04-05T17:45:55.556Z,100084.14
2019-04-05T17:48:28.383Z,100089.17
2019-04-05T17:51:01.307Z,100092.34
2019-04-05T17:53:34.167Z,100097.83
2019-04-05T17:56:07.315Z,100102.32
2019-04-05T17:58:40.853Z,100105.60
2019-04-05T18:01:13.875Z,100104.93
2019-04-05T18:03:46.800Z,100111.28
2019-04-05T18:06:19.717Z,100113.53
2019-04-05T18:08:52.615Z,100114.94
2019-04-05T18:11:25.578Z,100121.80
2019-04-05T18:13:58.523Z,100120.05
2019-04-05T18:16:31.575Z,100121.53
2019-04-05T18:19:04.419Z,100122.09
2019-04-05T18:21:37.509Z,100123.92
2019-04-05T18:24:10.580Z,100126.73
2019-04-05T18:26:43.540Z,100130.62
2019-04-05T18:29:16.390Z,100130.58
2019-04-05T18:31:49.348Z,100128.33
2019-04-05T18:34:22.427Z,100130.20
2019-04-05T18:36:55.521Z,100133.84
2019-04-05T18:39:31.698Z,100133.92
2019-04-05T18:42:04.544Z,100132.78
2019-04-05T18:44:37.590Z,100138.67
2019-04-05T18:47:10.749Z,100138.25
2019-04-05T18:49:43.665Z,100132.97
2019-04-05T18:52:16.582Z,100140.53
2019-04-05T18:54:49.565Z,100138.30
2019-04-05T18:57:22.620Z,100137.48
2019-04-05T18:59:55.605Z,100139.20
2019-04-05T19:02:28.565Z,100146.38
2019-04-05T19:05:01.414Z,100143.45
2019-04-05T19:07:34.923Z,100150.13
2019-04-05T19:10:08.660Z,100144.89
2019-04-05T19:12:41.698Z,100145.41
2019-04-05T19:15:14.862Z,100150.35
2019-04-05T19:17:48.948Z,100148.25
2019-04-05T19:20:21.789Z,100150.03
2019-04-05T19:22:54.658Z,100152.73
2019-04-05T19:25:27.484Z,100152.31
2019-04-05T19:28:00.524Z,100154.55
2019-04-05T19:48:36.316Z,100151.44
2019-04-05T19:51:09.393Z,100153.68
2019-04-05T19:53:42.246Z,100153.75
2019-04-05T19:56:15.292Z,100160.84
2019-04-05T19:58:48.243Z,100154.77
2019-04-05T20:01:21.160Z,100165.42
2019-04-05T20:03:54.049Z,100163.36
2019-04-05T20:06:26.930Z,100166.08
2019-04-05T20:08:59.823Z,100170.88
2019-04-05T20:11:34.291Z,100165.27
2019-04-05T20:14:07.400Z,100168.03
2019-04-05T20:16:41.456Z,100171.30
2019-04-05T20:19:15.677Z,100168.20
2019-04-05T20:21:48.590Z,100172.31
2019-04-05T20:24:23.584Z,100167.03
2019-04-05T20:26:56.648Z,100170.56
2019-04-05T20:29:29.545Z,100178.98
2019-04-05T20:32:02.458Z,100171.18
2019-04-05T20:34:35.540Z,100171.63
2019-04-05T20:37:08.433Z,100170.53
2019-04-05T20:39:41.223Z,100172.92
2019-04-05T20:42:14.310Z,100167.67
2019-04-05T20:44:47.340Z,100174.44
2019-04-05T20:47:20.508Z,100172.23
2019-04-05T20:49:53.490Z,100170.61
2019-04-05T20:52:26.398Z,100170.64
2019-04-05T20:55:02.745Z,100165.87
2019-04-05T20:57:35.713Z,100167.72
2019-04-05T21:00:10.446Z,100159.97
2019-04-05T21:02:44.179Z,100171.55
2019-04-05T21:05:25.397Z,100180.05
2019-04-05T21:07:51.754Z,100169.59
2019-04-05T21:10:24.857Z,100175.80
2019-04-05T21:12:57.921Z,100177.69
2019-04-05T21:15:30.817Z,100180.45
2019-04-05T21:18:03.961Z,100181.44
2019-04-05T21:20:37.987Z,100186.86
2019-04-05T21:23:10.915Z,100182.99
2019-04-05T21:25:43.769Z,100179.05
2019-04-05T21:28:16.555Z,100185.78
2019-04-05T21:30:50.349Z,100190.77
2019-04-05T21:33:25.097Z,100190.85
2019-04-05T21:35:58.011Z,100192.38
2019-04-05T21:38:30.951Z,100196.34
2019-04-05T21:41:03.780Z,100202.13
2019-04-05T21:43:36.603Z,100199.07
2019-04-05T21:46:09.671Z,100202.73
2019-04-05T21:48:42.530Z,100203.30
2019-04-05T21:51:16.346Z,100211.83
2019-04-05T21:53:49.481Z,100207.94
2019-04-05T21:56:22.272Z,100207.13
2019-04-05T21:58:55.082Z,100214.27
2019-04-05T22:01:28.182Z,100215.38
2019-04-05T22:04:02.710Z,100203.15
2019-04-05T22:06:35.577Z,100206.36
2019-04-05T22:09:10.313Z,100206.92
2019-04-05T22:11:43.282Z,100215.41
2019-04-05T22:14:16.126Z,100214.72
2019-04-05T22:16:48.920Z,100208.14
2019-04-05T22:19:21.737Z,100208.27
2019-04-05T22:21:54.548Z,100214.16
2019-04-05T22:24:27.507Z,100215.54
2019-04-05T22:27:00.417Z,100213.41
2019-04-05T22:29:33.405Z,100212.08
2019-04-05T22:32:08.043Z,100210.35
2019-04-05T22:34:40.819Z,100214.84
2019-04-05T22:37:13.604Z,100213.20
2019-04-05T22:39:46.417Z,100214.17
2019-04-05T22:42:20.395Z,100217.36
2019-04-05T22:44:55.687Z,100206.45
2019-04-05T22:47:29.569Z,100213.55
2019-04-05T22:50:02.681Z,100209.19
2019-04-05T22:52:36.055Z,100211.80
2019-04-05T22:55:11.397Z,100216.23
2019-04-05T22:57:43.824Z,100209.69
2019-04-05T23:00:18.365Z,100215.06
2019-04-05T23:02:52.758Z,100217.77
2019-04-05T23:05:25.760Z,100220.41
2019-04-05T23:07:58.745Z,100211.64
2019-04-05T23:10:31.669Z,100208.17
2019-04-05T23:13:04.607Z,100212.23
2019-04-05T23:15:37.582Z,100209.25
2019-04-05T23:18:10.591Z,100210.64
2019-04-05T23:20:43.735Z,100215.55
2019-04-05T23:23:16.722Z,100214.67
2019-04-05T23:25:49.905Z,100210.75
2019-04-05T23:28:22.820Z,100212.14
2019-04-05T23:30:55.779Z,100216.16
2019-04-05T23:33:30.632Z,100214.41
2019-04-05T23:36:03.476Z,100222.35
2019-04-05T23:38:36.509Z,100213.98
2019-04-05T23:41:10.880Z,100219.78
2019-04-05T23:43:44.094Z,100219.84
2019-04-05T23:46:19.245Z,100217.67
2019-04-05T23:48:52.026Z,100215.52
2019-04-05T23:51:24.858Z,100212.89
2019-04-05T23:53:57.792Z,100216.86
2019-04-05T23:56:30.580Z,100221.31
2019-04-05T23:59:07.153Z,100218.69
